Flight Track Log - Related Links

Times and Time Zones

All times are in EDT time to prevent confusion due to time zone crossing. See the UAL335 flight status page for this flight to view local times or setup timezone preferences in your user account.


Time Position Orientation Groundspeed Altitude Reporting Facility
EDT Latitude Longitude Course Direction KTS MPH feet Rate Location/Type
Tue 10:23:49 AM 41.9333 -87.8667 82° East 183 211 2,900  Level Chicago TRACON
Tue 10:24:49 AM 41.9667 -87.7833 62° Northeast 254 292 4,600 2,450 Climbing Chicago TRACON
Tue 10:25:49 AM 42.0000 -87.7000 62° Northeast 305 351 7,800 2,922 Climbing Chicago TRACON
Tue 10:28:00 AM 42.2667 -87.0448 90° East  Level FlightAware Approximate
Tue 10:28:02 AM 42.1003 -87.4697 60° Northeast 326 375 14,000  Level Chicago Center
Tue 10:29:00 AM 42.2816 -86.8841 82° East  Level FlightAware Approximate
Tue 10:29:04 AM 42.1564 -87.3461 58° Northeast 378 435 15,800  Level Chicago Center
Tue 10:30:06 AM 42.2128 -87.2156 60° Northeast 400 460 18,500 1,597 Climbing Chicago Center
Tue 10:31:08 AM 42.2694 -87.0864 59° Northeast 402 463 19,100 1,366 Climbing Chicago Center
Tue 10:32:09 AM 42.2856 -86.9094 83° East 400 460 21,300 1,854 Climbing Chicago Center
Tue 10:33:11 AM 42.2906 -86.7547 87° East 411 473 22,900 823 Climbing Chicago Center
Tue 10:34:13 AM 42.2956 -86.6075 87° East 430 495 23,000 97 Climbing Chicago Center
Tue 10:35:15 AM 42.3042 -86.4172 86° East 444 511 23,100 871 Climbing Chicago Center
Tue 10:36:17 AM 42.3106 -86.2522 87° East 443 510 24,800 1,452 Climbing Chicago Center
Tue 10:37:19 AM 42.3153 -86.0839 88° East 450 518 26,100 1,016 Climbing Chicago Center
Tue 10:38:21 AM 42.3125 -85.9031 91° East 478 550 26,900 1,171 Climbing Chicago Center
Tue 10:39:22 AM 42.3103 -85.6764 91° East 503 579 28,500 1,366 Climbing Chicago Center
Tue 10:40:24 AM 42.3081 -85.4825 91° East 515 593 29,700 1,355 Climbing Chicago Center
Tue 10:41:26 AM 42.3050 -85.2856 91° East 525 604 31,300 1,452 Climbing Chicago Center
Tue 10:42:28 AM 42.3011 -85.0914 91° East 523 602 32,700 823 Climbing Chicago Center
Tue 10:43:30 AM 42.2972 -84.8953 91° East 523 602 33,000 185 Climbing Chicago Center
Tue 10:44:38 AM 42.2886 -84.6394 93° East 532 612 33,100  Climbing Cleveland Center
Tue 10:45:38 AM 42.2914 -84.4403 89° East 537 618 33,000  Descending Cleveland Center
Tue 10:46:38 AM 42.3186 -84.2453 79° East 531 611 33,100 50 Climbing Cleveland Center
Tue 10:47:38 AM 42.3433 -84.0528 80° East 531 611 33,100 -50 Level Cleveland Center
Tue 10:48:38 AM 42.3719 -83.8547 79° East 536 617 33,000 -50 Descending Cleveland Center
Tue 10:49:38 AM 42.3956 -83.6844 79° East 536 617 33,000  Level Cleveland Center
Tue 10:50:38 AM 42.4108 -83.4911 84° East 529 609 33,000 50 Level Cleveland Center
Tue 10:51:38 AM 42.4181 -83.2889 87° East 523 602 33,100 50 Climbing Cleveland Center
Tue 10:52:38 AM 42.4244 -83.0950 87° East 523 602 33,100 -50 Level Cleveland Center
Tue 10:53:38 AM 42.4328 -82.8956 87° East 523 602 33,000 -50 Descending Cleveland Center
Tue 10:54:38 AM 42.4386 -82.7017 88° East 518 596 33,000 -50 Level Cleveland Center
Tue 10:55:38 AM 42.4442 -82.5078 88° East 518 596 32,900 -750 Descending Cleveland Center
Tue 10:56:38 AM 42.4472 -82.3164 89° East 513 590 31,500 -900 Descending Cleveland Center
Tue 10:57:38 AM 42.4544 -82.1028 87° East 519 597 31,100 -250 Descending Cleveland Center
Tue 10:58:38 AM 42.4586 -81.9283 88° East 511 588 31,000 -50 Descending Cleveland Center
Tue 10:59:38 AM 42.4631 -81.7144 88° East 511 588 31,000  Level Cleveland Center
Tue 11:00:38 AM 42.4689 -81.5233 88° East 518 596 31,000  Level Cleveland Center
Tue 11:01:38 AM 42.4703 -81.3347 89° East 506 582 31,000 -800 Level Cleveland Center
Tue 11:02:38 AM 42.4753 -81.1686 88° East 500 575 29,400 -1,950 Descending Cleveland Center
Tue 11:03:38 AM 42.4783 -80.9914 89° East 477 549 27,100 -1,200 Descending Cleveland Center
Tue 11:04:38 AM 42.4786 -80.8253 90° East 448 516 27,000 -50 Descending Cleveland Center
Tue 11:05:38 AM 42.4831 -80.6619 88° East 436 502 27,000  Level Cleveland Center
Tue 11:06:38 AM 42.4831 -80.4958 90° East 436 502 27,000  Level Cleveland Center
Tue 11:07:38 AM 42.4850 -80.3072 89° East 445 512 27,000  Level Cleveland Center
Tue 11:08:38 AM 42.4864 -80.1328 89° East 455 524 27,000  Level Cleveland Center
Tue 11:09:38 AM 42.4919 -79.9608 87° East 455 524 27,000  Level Cleveland Center
Tue 11:10:38 AM 42.4928 -79.7892 90° East 455 524 27,000  Level Cleveland Center
Tue 11:11:38 AM 42.4936 -79.6117 90° East 460 529 27,000  Level Cleveland Center
Tue 11:12:38 AM 42.4942 -79.4372 90° East 460 529 27,000  Level Cleveland Center
Tue 11:13:38 AM 42.4944 -79.2653 90° East 460 529 27,000  Level Cleveland Center
Tue 11:14:38 AM 42.5069 -79.0875 84° East 460 529 27,000  Level Cleveland Center
Tue 11:15:38 AM 42.5169 -78.9183 85° East 460 529 27,000  Level Cleveland Center
Tue 11:16:38 AM 42.5289 -78.7433 85° East 460 529 27,000  Level Cleveland Center
Tue 11:17:38 AM 42.5406 -78.5711 85° East 469 540 27,000  Level Cleveland Center
Tue 11:18:38 AM 42.5500 -78.4017 86° East 458 527 27,000  Level Cleveland Center
Tue 11:19:38 AM 42.5614 -78.2322 85° East 458 527 27,000  Level Cleveland Center
Tue 11:20:38 AM 42.5725 -78.0653 85° East 452 520 27,000  Level Cleveland Center
Tue 11:21:38 AM 42.5811 -77.8986 86° East 447 514 27,000  Level Cleveland Center
Tue 11:22:38 AM 42.5897 -77.7319 86° East 442 509 27,000  Level Cleveland Center
Tue 11:23:38 AM 42.6000 -77.5650 85° East 442 509 27,000  Level Cleveland Center
Tue 11:25:16 AM 42.6131 -77.3075 86° East 447 514 27,000  Level Boston Center
Tue 11:26:15 AM 42.6222 -77.1389 86° East 452 520 27,000  Level Boston Center
Tue 11:27:15 AM 42.6311 -76.9703 86° East 447 514 27,000  Level Boston Center
Tue 11:28:15 AM 42.6397 -76.8014 86° East 447 514 27,000  Level Boston Center
Tue 11:29:15 AM 42.6483 -76.6325 86° East 447 514 27,000  Level Boston Center
Tue 11:30:15 AM 42.6564 -76.4636 86° East 447 514 27,000  Level Boston Center
Tue 11:31:15 AM 42.6642 -76.2975 86° East 442 509 27,000  Level Boston Center
Tue 11:32:16 AM 42.6725 -76.1086 87° East 442 509 27,000 -50 Level Boston Center
Tue 11:33:15 AM 42.6800 -75.9369 87° East 442 509 26,900 -958 Descending Boston Center
Tue 11:34:15 AM 42.6853 -75.7675 88° East 447 514 25,100 -942 Descending Boston Center
Tue 11:35:16 AM 42.6919 -75.6069 87° East 437 503 25,000 -50 Descending Boston Center
Tue 11:36:15 AM 42.6981 -75.4575 87° East 437 503 25,000  Level Boston Center
Tue 11:37:15 AM 42.7022 -75.2939 88° East 437 503 25,000  Level Boston Center
Tue 11:38:15 AM 42.7083 -75.1244 87° East 437 503 25,000  Level Boston Center
Tue 11:39:15 AM 42.7164 -74.9581 86° East 437 503 25,000  Level Boston Center
Tue 11:40:15 AM 42.7200 -74.7886 88° East 437 503 25,000  Level Boston Center
Tue 11:41:15 AM 42.7256 -74.6219 87° East 437 503 25,000  Level Boston Center
Tue 11:42:15 AM 42.7306 -74.4556 88° East 442 509 25,000  Level Boston Center
Tue 11:43:16 AM 42.7356 -74.2803 88° East 442 509 25,000  Level Boston Center
Tue 11:44:15 AM 42.7403 -74.1136 88° East 442 509 25,000  Level Boston Center
Tue 11:45:16 AM 42.7425 -73.9469 89° East 442 509 25,000  Level Boston Center
Tue 11:46:15 AM 42.7447 -73.7772 89° East 442 509 25,000  Level Boston Center
Tue 11:47:15 AM 42.7281 -73.5961 97° East 442 509 25,000  Level Boston Center
Tue 11:48:15 AM 42.7086 -73.4289 99° East 442 509 25,000  Level Boston Center
Tue 11:49:15 AM 42.6911 -73.2678 98° East 442 509 25,000  Level Boston Center
Tue 11:50:15 AM 42.6736 -73.1036 98° East 442 509 25,000 -50 Level Boston Center
Tue 11:51:15 AM 42.6556 -72.9456 99° East 448 516 24,900 -545 Descending Boston Center
Tue 11:52:16 AM 42.6375 -72.7817 98° East 448 516 23,900 -900 Descending Boston Center
Tue 11:53:15 AM 42.6231 -72.6603 99° East 441 507 23,100 -1,008 Descending Boston Center
Tue 11:54:15 AM 42.6067 -72.4767 97° East 415 478 21,900 -1,550 Descending Boston Center
Tue 11:55:15 AM 42.5794 -72.3161 103° East 422 486 20,000 -1,900 Descending Boston Center
Tue 11:56:15 AM 42.5606 -72.1753 100° East 397 457 18,100 -1,700 Descending Boston Center
Tue 11:57:15 AM 42.5414 -72.0203 99° East 386 444 16,600 -1,600 Descending Boston Center
Tue 11:58:15 AM 42.5303 -71.8936 97° East 381 438 14,900 -1,900 Descending Boston Center
Tue 11:59:15 AM 42.5172 -71.7500 97° East 358 412 12,800 -1,600 Descending Boston Center
Tue 12:00:15 PM 42.5081 -71.6486 97° East 346 398 11,700 -1,000 Descending Boston Center
Tue 12:01:15 PM 42.4967 -71.5136 96° East 315 362 10,800 -1,140 Descending Boston Center
Tue 12:02:16 PM 42.4897 -71.4208 96° East 287 330 9,400 -843 Descending Boston Center
Tue 12:03:16 PM 42.4822 -71.3056 95° East 275 316 9,100 -150 Descending Boston Center
Tue 12:04:16 PM 42.4750 -71.2156 96° East 270 311 9,100  Level Boston Center
Tue 12:05:15 PM 42.4656 -71.1061 97° East 270 311 9,100 -403 Level Boston Center
Tue 12:06:15 PM 42.4606 -71.0303 95° East 248 285 8,300 -1,000 Descending Boston Center
Tue 12:07:15 PM 42.4222 -70.9664 129° Southeast 196 226 7,100 -1,091 Descending Boston Center
Tue 12:08:16 PM 42.3697 -70.9508 168° South 201 231 6,100 -448 Descending Boston Center
Tue 12:09:29 PM 42.2833 -70.9500 180° South 232 267 6,100 -496 Level KA90
Tue 12:10:29 PM 42.2333 -70.9833 206° Southwest 226 260 5,000 -1,200 Descending KA90
Tue 12:11:29 PM 42.1667 -71.0167 200° South 225 259 3,700 -1,000 Descending KA90
Tue 12:12:29 PM 42.1333 -71.0667 228° Southwest 231 266 3,000 -350 Descending KA90
Tue 12:13:29 PM 42.1667 -71.1167 312° West 188 216 3,000  Level KA90
Tue 12:14:35 PM 42.2167 -71.0833 26° Northeast 171 197 3,000  Level KA90

Login

Don't have an account? Register now (free) for customized features, flight alerts, and more!